sensor_id;sensor_type;location;lat;lon;timestamp;pressure;altitude;pressure_sealevel;temperature;humidity
66486;BME280;53303;47.476;8.084;2023-03-16T00:02:05;95463.69;;;19.30;33.86
66486;BME280;53303;47.476;8.084;2023-03-16T00:04:33;95490.41;;;19.50;33.86
66486;BME280;53303;47.476;8.084;2023-03-16T00:07:06;95490.41;;;19.50;33.77
66486;BME280;53303;47.476;8.084;2023-03-16T00:09:32;95489.88;;;19.46;33.94
66486;BME280;53303;47.476;8.084;2023-03-16T00:11:59;95486.88;;;19.50;33.92
66486;BME280;53303;47.476;8.084;2023-03-16T00:14:27;95484.09;;;19.50;33.79
66486;BME280;53303;47.476;8.084;2023-03-16T00:16:53;95475.28;;;19.46;33.90
66486;BME280;53303;47.476;8.084;2023-03-16T00:19:25;95440.06;;;19.24;33.78
66486;BME280;53303;47.476;8.084;2023-03-16T00:21:53;95479.84;;;19.49;33.87
66486;BME280;53303;47.476;8.084;2023-03-16T00:24:19;95469.25;;;19.42;33.80
66486;BME280;53303;47.476;8.084;2023-03-16T00:26:49;95456.94;;;19.37;33.75
66486;BME280;53303;47.476;8.084;2023-03-16T00:29:14;95463.97;;;19.38;34.07
66486;BME280;53303;47.476;8.084;2023-03-16T00:31:42;95463.97;;;19.32;33.98
66486;BME280;53303;47.476;8.084;2023-03-16T00:34:10;95482.59;;;19.49;33.83
66486;BME280;53303;47.476;8.084;2023-03-16T00:36:36;95470.75;;;19.37;34.04
66486;BME280;53303;47.476;8.084;2023-03-16T00:39:05;95485.63;;;19.51;33.97
66486;BME280;53303;47.476;8.084;2023-03-16T00:41:31;95486.88;;;19.50;33.83
66486;BME280;53303;47.476;8.084;2023-03-16T00:44:02;95448.63;;;19.26;33.96
66486;BME280;53303;47.476;8.084;2023-03-16T00:46:27;95463.97;;;19.38;33.94
66486;BME280;53303;47.476;8.084;2023-03-16T00:48:55;95468.50;;;19.41;34.05
66486;BME280;53303;47.476;8.084;2023-03-16T00:51:23;95476.28;;;19.48;33.85
66486;BME280;53303;47.476;8.084;2023-03-16T00:53:50;95450.91;;;19.33;33.71
66486;BME280;53303;47.476;8.084;2023-03-16T00:56:16;95479.06;;;19.48;33.85
66486;BME280;53303;47.476;8.084;2023-03-16T00:58:45;95470.25;;;19.44;34.07
66486;BME280;53303;47.476;8.084;2023-03-16T01:01:17;95472.78;;;19.48;33.94
66486;BME280;53303;47.476;8.084;2023-03-16T01:03:43;95470.00;;;19.48;34.02
66486;BME280;53303;47.476;8.084;2023-03-16T01:06:15;95470.00;;;19.48;33.81
66486;BME280;53303;47.476;8.084;2023-03-16T01:08:42;95446.34;;;19.35;33.90
66486;BME280;53303;47.476;8.084;2023-03-16T01:11:13;95428.25;;;19.23;33.92
66486;BME280;53303;47.476;8.084;2023-03-16T01:13:40;95431.03;;;19.29;34.08
66486;BME280;53303;47.476;8.084;2023-03-16T01:16:09;95451.38;;;19.48;34.01
66486;BME280;53303;47.476;8.084;2023-03-16T01:18:38;95445.09;;;19.48;33.81
66486;BME280;53303;47.476;8.084;2023-03-16T01:21:07;95423.72;;;19.31;33.84
66486;BME280;53303;47.476;8.084;2023-03-16T01:23:34;95417.69;;;19.33;33.77
66486;BME280;53303;47.476;8.084;2023-03-16T01:26:00;95422.47;;;19.32;33.96
66486;BME280;53303;47.476;8.084;2023-03-16T01:28:30;95413.94;;;19.36;33.90
66486;BME280;53303;47.476;8.084;2023-03-16T01:31:04;95438.06;;;19.47;33.94
66486;BME280;53303;47.476;8.084;2023-03-16T01:33:33;95413.16;;;19.35;34.02
66486;BME280;53303;47.476;8.084;2023-03-16T01:36:02;95431.78;;;19.46;33.84
66486;BME280;53303;47.476;8.084;2023-03-16T01:38:29;95436.31;;;19.44;34.18
66486;BME280;53303;47.476;8.084;2023-03-16T01:41:00;95439.31;;;19.46;33.96
66486;BME280;53303;47.476;8.084;2023-03-16T01:43:31;95431.78;;;19.46;33.91
66486;BME280;53303;47.476;8.084;2023-03-16T01:48:30;95430.28;;;19.45;33.97
66486;BME280;53303;47.476;8.084;2023-03-16T01:53:39;95411.91;;;19.36;34.14
66486;BME280;53303;47.476;8.084;2023-03-16T01:56:09;95411.41;;;19.38;33.82
66486;BME280;53303;47.476;8.084;2023-03-16T01:58:38;95420.44;;;19.44;33.92
66486;BME280;53303;47.476;8.084;2023-03-16T02:01:04;95423.22;;;19.44;33.91
66486;BME280;53303;47.476;8.084;2023-03-16T02:03:32;95411.41;;;19.38;34.20
66486;BME280;53303;47.476;8.084;2023-03-16T02:06:08;95419.97;;;19.46;34.04
66486;BME280;53303;47.476;8.084;2023-03-16T02:08:39;95411.66;;;19.40;33.88
66486;BME280;53303;47.476;8.084;2023-03-16T02:11:10;95413.16;;;19.35;33.93
66486;BME280;53303;47.476;8.084;2023-03-16T02:13:38;95401.09;;;19.27;33.86
66486;BME280;53303;47.476;8.084;2023-03-16T02:16:09;95411.41;;;19.32;33.84
66486;BME280;53303;47.476;8.084;2023-03-16T02:18:44;95410.91;;;19.39;34.27
66486;BME280;53303;47.476;8.084;2023-03-16T02:23:52;95403.34;;;19.34;34.00
66486;BME280;53303;47.476;8.084;2023-03-16T02:31:37;95415.16;;;19.40;33.96
66486;BME280;53303;47.476;8.084;2023-03-16T02:34:06;95411.91;;;19.42;34.02
66486;BME280;53303;47.476;8.084;2023-03-16T02:36:33;95413.94;;;19.42;33.97
66486;BME280;53303;47.476;8.084;2023-03-16T02:39:00;95401.84;;;19.33;33.71
66486;BME280;53303;47.476;8.084;2023-03-16T02:41:26;95388.75;;;19.23;33.86
66486;BME280;53303;47.476;8.084;2023-03-16T02:46:27;95409.63;;;19.40;33.72
66486;BME280;53303;47.476;8.084;2023-03-16T02:49:13;95412.66;;;19.37;33.93
66486;BME280;53303;47.476;8.084;2023-03-16T02:51:44;95386.00;;;19.28;34.11
66486;BME280;53303;47.476;8.084;2023-03-16T02:54:12;95409.13;;;19.36;34.09
66486;BME280;53303;47.476;8.084;2023-03-16T02:56:40;95390.53;;;19.26;34.00
66486;BME280;53303;47.476;8.084;2023-03-16T02:59:09;95360.09;;;19.09;33.82
66486;BME280;53303;47.476;8.084;2023-03-16T03:01:36;95398.31;;;19.38;33.95
66486;BME280;53303;47.476;8.084;2023-03-16T03:04:03;95382.25;;;19.20;34.09
66486;BME280;53303;47.476;8.084;2023-03-16T03:09:00;95412.91;;;19.39;33.91
66486;BME280;53303;47.476;8.084;2023-03-16T03:11:28;95391.53;;;19.28;33.95
66486;BME280;53303;47.476;8.084;2023-03-16T03:13:54;95404.84;;;19.35;33.82
66486;BME280;53303;47.476;8.084;2023-03-16T03:16:22;95387.25;;;19.27;33.71
66486;BME280;53303;47.476;8.084;2023-03-16T03:18:48;95403.09;;;19.38;34.04
66486;BME280;53303;47.476;8.084;2023-03-16T03:21:13;95374.94;;;19.23;33.88
66486;BME280;53303;47.476;8.084;2023-03-16T03:23:41;95387.50;;;19.35;33.84
66486;BME280;53303;47.476;8.084;2023-03-16T03:26:13;95384.50;;;19.38;33.98
66486;BME280;53303;47.476;8.084;2023-03-16T03:28:44;95351.78;;;19.14;33.99
66486;BME280;53303;47.476;8.084;2023-03-16T03:31:14;95369.66;;;19.25;33.81
66486;BME280;53303;47.476;8.084;2023-03-16T03:33:40;95380.44;;;19.34;33.82
66486;BME280;53303;47.476;8.084;2023-03-16T03:36:05;95378.22;;;19.32;33.90
66486;BME280;53303;47.476;8.084;2023-03-16T03:38:31;95376.19;;;19.27;33.93
66486;BME280;53303;47.476;8.084;2023-03-16T03:40:59;95362.38;;;19.27;33.95
66486;BME280;53303;47.476;8.084;2023-03-16T03:43:25;95374.41;;;19.35;33.83
66486;BME280;53303;47.476;8.084;2023-03-16T03:46:00;95363.63;;;19.26;33.84
66486;BME280;53303;47.476;8.084;2023-03-16T03:48:26;95373.91;;;19.37;33.82
66486;BME280;53303;47.476;8.084;2023-03-16T03:50:53;95375.94;;;19.36;33.86
66486;BME280;53303;47.476;8.084;2023-03-16T03:53:21;95379.94;;;19.35;33.95
66486;BME280;53303;47.476;8.084;2023-03-16T03:55:46;95373.91;;;19.37;33.82
66486;BME280;53303;47.476;8.084;2023-03-16T03:58:17;95368.16;;;19.29;33.56
66486;BME280;53303;47.476;8.084;2023-03-16T04:00:44;95373.91;;;19.37;33.94
66486;BME280;53303;47.476;8.084;2023-03-16T04:03:12;95354.06;;;19.21;33.81
66486;BME280;53303;47.476;8.084;2023-03-16T04:05:38;95343.50;;;19.14;33.86
66486;BME280;53303;47.476;8.084;2023-03-16T04:08:03;95377.69;;;19.34;33.83
66486;BME280;53303;47.476;8.084;2023-03-16T04:10:31;95353.31;;;19.21;33.82
66486;BME280;53303;47.476;8.084;2023-03-16T04:13:00;95371.16;;;19.37;33.88
66486;BME280;53303;47.476;8.084;2023-03-16T04:15:27;95363.38;;;19.30;33.78
66486;BME280;53303;47.476;8.084;2023-03-16T04:17:55;95372.94;;;19.29;33.92
66486;BME280;53303;47.476;8.084;2023-03-16T04:20:23;95356.59;;;19.31;33.89
66486;BME280;53303;47.476;8.084;2023-03-16T04:22:48;95352.31;;;19.24;33.85
66486;BME280;53303;47.476;8.084;2023-03-16T04:25:16;95358.06;;;19.37;33.85
66486;BME280;53303;47.476;8.084;2023-03-16T04:27:44;95341.75;;;19.23;33.85
66486;BME280;53303;47.476;8.084;2023-03-16T04:30:15;95300.25;;;19.00;33.98
66486;BME280;53303;47.476;8.084;2023-03-16T04:32:40;95363.59;;;19.37;33.83
66486;BME280;53303;47.476;8.084;2023-03-16T04:35:06;95343.75;;;19.22;33.72
66486;BME280;53303;47.476;8.084;2023-03-16T04:37:34;95369.13;;;19.37;33.92
66486;BME280;53303;47.476;8.084;2023-03-16T04:39:59;95349.78;;;19.26;33.84
66486;BME280;53303;47.476;8.084;2023-03-16T04:42:25;95366.38;;;19.37;33.72
66486;BME280;53303;47.476;8.084;2023-03-16T04:44:50;95368.63;;;19.39;33.71
66486;BME280;53303;47.476;8.084;2023-03-16T04:47:16;95370.16;;;19.34;33.84
66486;BME280;53303;47.476;8.084;2023-03-16T04:49:44;95361.59;;;19.38;33.85
66486;BME280;53303;47.476;8.084;2023-03-16T04:52:10;95341.97;;;19.25;33.85
66486;BME280;53303;47.476;8.084;2023-03-16T04:54:40;95343.75;;;19.28;33.89
66486;BME280;53303;47.476;8.084;2023-03-16T04:57:08;95335.22;;;19.20;33.51
66486;BME280;53303;47.476;8.084;2023-03-16T04:59:33;95369.91;;;19.38;32.65
66486;BME280;53303;47.476;8.084;2023-03-16T05:01:59;95331.69;;;19.14;32.64
66486;BME280;53303;47.476;8.084;2023-03-16T05:04:24;95364.88;;;19.36;32.74
66486;BME280;53303;47.476;8.084;2023-03-16T05:06:49;95352.03;;;19.33;32.50
66486;BME280;53303;47.476;8.084;2023-03-16T05:09:15;95334.72;;;19.21;32.41
66486;BME280;53303;47.476;8.084;2023-03-16T05:11:41;95338.47;;;19.24;32.50
66486;BME280;53303;47.476;8.084;2023-03-16T05:14:06;95342.50;;;19.29;32.83
66486;BME280;53303;47.476;8.084;2023-03-16T05:16:34;95335.22;;;19.20;32.71
66486;BME280;53303;47.476;8.084;2023-03-16T05:19:02;95335.94;;;19.26;32.75
66486;BME280;53303;47.476;8.084;2023-03-16T05:21:33;95330.66;;;19.23;32.90
66486;BME280;53303;47.476;8.084;2023-03-16T05:24:06;95338.72;;;19.20;33.04
66486;BME280;53303;47.476;8.084;2023-03-16T05:26:32;95338.72;;;19.20;33.02
66486;BME280;53303;47.476;8.084;2023-03-16T05:28:58;95327.66;;;19.15;33.23
66486;BME280;53303;47.476;8.084;2023-03-16T05:31:23;95314.34;;;19.08;33.14
66486;BME280;53303;47.476;8.084;2023-03-16T05:33:56;95309.81;;;19.05;33.23
66486;BME280;53303;47.476;8.084;2023-03-16T05:36:22;95349.03;;;19.26;33.17
66486;BME280;53303;47.476;8.084;2023-03-16T05:38:50;95331.19;;;19.15;33.07
66486;BME280;53303;47.476;8.084;2023-03-16T05:41:19;95350.78;;;19.23;33.22
66486;BME280;53303;47.476;8.084;2023-03-16T05:43:45;95325.91;;;19.06;33.29
66486;BME280;53303;47.476;8.084;2023-03-16T05:46:11;95344.50;;;19.17;33.56
66486;BME280;53303;47.476;8.084;2023-03-16T05:48:36;95334.44;;;19.08;33.40
66486;BME280;53303;47.476;8.084;2023-03-16T05:51:02;95343.25;;;19.24;33.42
66486;BME280;53303;47.476;8.084;2023-03-16T05:53:32;95348.78;;;19.24;33.33
66486;BME280;53303;47.476;8.084;2023-03-16T05:56:02;95337.72;;;19.18;33.42
66486;BME280;53303;47.476;8.084;2023-03-16T05:58:29;95316.59;;;19.03;33.31
66486;BME280;53303;47.476;8.084;2023-03-16T06:00:58;95327.41;;;19.13;33.64
66486;BME280;53303;47.476;8.084;2023-03-16T06:03:26;95333.94;;;19.10;33.33
66486;BME280;53303;47.476;8.084;2023-03-16T06:05:51;95324.91;;;19.09;33.43
66486;BME280;53303;47.476;8.084;2023-03-16T06:08:19;95342.50;;;19.17;33.57
66486;BME280;53303;47.476;8.084;2023-03-16T06:10:47;95318.59;;;19.03;33.49
66486;BME280;53303;47.476;8.084;2023-03-16T06:13:13;95342.25;;;19.21;33.47
66486;BME280;53303;47.476;8.084;2023-03-16T06:15:45;95327.69;;;19.09;33.48
66486;BME280;53303;47.476;8.084;2023-03-16T06:18:14;95312.59;;;18.93;33.53
66486;BME280;53303;47.476;8.084;2023-03-16T06:20:39;95342.00;;;19.08;33.49
66486;BME280;53303;47.476;8.084;2023-03-16T06:23:07;95337.97;;;19.03;33.38
66486;BME280;53303;47.476;8.084;2023-03-16T06:25:32;95344.78;;;19.08;33.78
66486;BME280;53303;47.476;8.084;2023-03-16T06:27:58;95346.50;;;19.11;33.40
66486;BME280;53303;47.476;8.084;2023-03-16T06:30:25;95347.53;;;19.13;33.59
66486;BME280;53303;47.476;8.084;2023-03-16T06:32:51;95343.50;;;19.09;33.69
66486;BME280;53303;47.476;8.084;2023-03-16T06:35:19;95354.31;;;19.12;33.47
66486;BME280;53303;47.476;8.084;2023-03-16T06:37:46;95345.28;;;19.06;33.48
66486;BME280;53303;47.476;8.084;2023-03-16T06:40:12;95350.53;;;19.10;33.61
66486;BME280;53303;47.476;8.084;2023-03-16T06:42:40;95346.75;;;19.07;33.69
66486;BME280;53303;47.476;8.084;2023-03-16T06:45:09;95366.16;;;19.13;33.47
66486;BME280;53303;47.476;8.084;2023-03-16T06:47:36;95367.38;;;19.17;33.54
66486;BME280;53303;47.476;8.084;2023-03-16T06:50:04;95328.94;;;18.91;33.54
66486;BME280;53303;47.476;8.084;2023-03-16T06:52:32;95367.88;;;19.16;33.60
66486;BME280;53303;47.476;8.084;2023-03-16T06:54:58;95355.06;;;19.07;33.54
66486;BME280;53303;47.476;8.084;2023-03-16T06:57:23;95342.50;;;19.00;33.68
66486;BME280;53303;47.476;8.084;2023-03-16T06:59:51;95357.31;;;19.09;33.53
66486;BME280;53303;47.476;8.084;2023-03-16T07:02:17;95340.47;;;18.84;33.64
66486;BME280;53303;47.476;8.084;2023-03-16T07:04:44;95370.66;;;19.16;33.55
66486;BME280;53303;47.476;8.084;2023-03-16T07:07:13;95359.84;;;19.07;33.63
66486;BME280;53303;47.476;8.084;2023-03-16T07:09:41;95369.91;;;19.15;33.67
66486;BME280;53303;47.476;8.084;2023-03-16T07:12:12;95364.38;;;19.15;33.64
66486;BME280;53303;47.476;8.084;2023-03-16T07:14:38;95364.13;;;19.13;33.66
66486;BME280;53303;47.476;8.084;2023-03-16T07:17:03;95342.25;;;18.98;33.38
66486;BME280;53303;47.476;8.084;2023-03-16T07:19:29;95363.63;;;19.15;33.59
66486;BME280;53303;47.476;8.084;2023-03-16T07:21:57;95366.38;;;19.15;33.53
66486;BME280;53303;47.476;8.084;2023-03-16T07:24:22;95347.28;;;19.06;33.63
66486;BME280;53303;47.476;8.084;2023-03-16T07:26:50;95353.06;;;19.08;33.15
66486;BME280;53303;47.476;8.084;2023-03-16T07:29:18;95345.75;;;19.05;33.54
66486;BME280;53303;47.476;8.084;2023-03-16T07:31:46;95338.75;;;19.09;33.68
66486;BME280;53303;47.476;8.084;2023-03-16T07:34:14;95343.50;;;19.14;33.60
66486;BME280;53303;47.476;8.084;2023-03-16T07:36:42;95320.38;;;19.00;33.52
66486;BME280;53303;47.476;8.084;2023-03-16T07:39:08;95335.19;;;19.03;33.58
66486;BME280;53303;47.476;8.084;2023-03-16T07:41:38;95342.75;;;19.08;33.72
66486;BME280;53303;47.476;8.084;2023-03-16T07:44:06;95337.72;;;19.07;33.56
66486;BME280;53303;47.476;8.084;2023-03-16T07:46:34;95339.50;;;19.04;33.56
66486;BME280;53303;47.476;8.084;2023-03-16T07:48:59;95344.03;;;19.13;33.59
66486;BME280;53303;47.476;8.084;2023-03-16T07:51:27;95327.66;;;19.03;33.55
66486;BME280;53303;47.476;8.084;2023-03-16T07:53:53;95339.97;;;19.08;33.45
66486;BME280;53303;47.476;8.084;2023-03-16T07:56:23;95317.63;;;19.00;33.62
66486;BME280;53303;47.476;8.084;2023-03-16T07:58:51;95317.88;;;19.02;33.43
66486;BME280;53303;47.476;8.084;2023-03-16T08:01:19;95314.84;;;19.06;33.78
66486;BME280;53303;47.476;8.084;2023-03-16T08:03:44;95300.25;;;18.94;33.74
66486;BME280;53303;47.476;8.084;2023-03-16T08:06:09;95324.41;;;19.16;33.25
66486;BME280;53303;47.476;8.084;2023-03-16T08:08:38;95317.13;;;19.08;33.58
66486;BME280;53303;47.476;8.084;2023-03-16T08:11:04;95318.88;;;19.16;33.62
66486;BME280;53303;47.476;8.084;2023-03-16T08:13:29;95315.09;;;19.14;33.77
66486;BME280;53303;47.476;8.084;2023-03-16T08:15:55;95299.50;;;18.99;33.58
66486;BME280;53303;47.476;8.084;2023-03-16T08:18:24;95317.59;;;19.06;33.67
66486;BME280;53303;47.476;8.084;2023-03-16T08:20:49;95327.16;;;19.11;33.63
66486;BME280;53303;47.476;8.084;2023-03-16T08:23:15;95324.38;;;19.05;33.55
66486;BME280;53303;47.476;8.084;2023-03-16T08:25:41;95345.50;;;19.14;33.64
66486;BME280;53303;47.476;8.084;2023-03-16T08:28:07;95339.22;;;19.13;33.57
66486;BME280;53303;47.476;8.084;2023-03-16T08:30:34;95317.34;;;18.93;33.62
66486;BME280;53303;47.476;8.084;2023-03-16T08:33:00;95348.28;;;19.14;33.56
66486;BME280;53303;47.476;8.084;2023-03-16T08:35:27;95333.19;;;19.03;33.56
66486;BME280;53303;47.476;8.084;2023-03-16T08:37:55;95339.72;;;19.12;33.59
66486;BME280;53303;47.476;8.084;2023-03-16T08:40:21;95347.03;;;19.20;33.61
66486;BME280;53303;47.476;8.084;2023-03-16T08:42:50;95347.03;;;19.20;33.63
66486;BME280;53303;47.476;8.084;2023-03-16T08:45:16;95317.38;;;19.04;33.60
66486;BME280;53303;47.476;8.084;2023-03-16T08:47:44;95329.94;;;19.16;33.64
66486;BME280;53303;47.476;8.084;2023-03-16T08:50:12;95320.38;;;19.06;33.79
66486;BME280;53303;47.476;8.084;2023-03-16T08:52:42;95317.38;;;19.04;33.69
66486;BME280;53303;47.476;8.084;2023-03-16T08:55:10;95317.13;;;19.08;33.82
66486;BME280;53303;47.476;8.084;2023-03-16T08:57:42;95302.25;;;19.05;33.70
66486;BME280;53303;47.476;8.084;2023-03-16T09:00:13;95306.53;;;19.12;33.72
66486;BME280;53303;47.476;8.084;2023-03-16T09:02:44;95302.53;;;19.13;33.78
66486;BME280;53303;47.476;8.084;2023-03-16T09:05:14;95316.59;;;19.20;33.71
66486;BME280;53303;47.476;8.084;2023-03-16T09:07:42;95316.59;;;19.20;33.81
66486;BME280;53303;47.476;8.084;2023-03-16T09:10:13;95307.53;;;19.09;33.74
66486;BME280;53303;47.476;8.084;2023-03-16T09:12:42;95298.75;;;19.10;33.77
66486;BME280;53303;47.476;8.084;2023-03-16T09:15:09;95315.34;;;19.21;33.67
66486;BME280;53303;47.476;8.084;2023-03-16T09:17:38;95314.56;;;19.21;33.75
66486;BME280;53303;47.476;8.084;2023-03-16T09:20:06;95309.03;;;19.21;33.90
66486;BME280;53303;47.476;8.084;2023-03-16T09:22:35;95307.81;;;19.16;33.91
66486;BME280;53303;47.476;8.084;2023-03-16T09:25:04;95313.84;;;19.20;33.55
66486;BME280;53303;47.476;8.084;2023-03-16T09:27:31;95316.09;;;19.22;33.85
66486;BME280;53303;47.476;8.084;2023-03-16T09:29:59;95299.50;;;19.05;33.80
66486;BME280;53303;47.476;8.084;2023-03-16T09:32:27;95313.34;;;19.22;33.75
66486;BME280;53303;47.476;8.084;2023-03-16T09:34:57;95316.84;;;19.23;33.79
66486;BME280;53303;47.476;8.084;2023-03-16T09:37:25;95293.97;;;19.11;33.53
66486;BME280;53303;47.476;8.084;2023-03-16T09:39:50;95286.16;;;19.03;33.80
66486;BME280;53303;47.476;8.084;2023-03-16T09:45:30;95274.13;;;19.01;33.76
66486;BME280;53303;47.476;8.084;2023-03-16T09:48:01;95290.19;;;19.08;34.05
66486;BME280;53303;47.476;8.084;2023-03-16T09:50:33;95282.66;;;19.09;33.76
66486;BME280;53303;47.476;8.084;2023-03-16T09:55:34;95273.59;;;19.08;33.75
66486;BME280;53303;47.476;8.084;2023-03-16T09:58:03;95296.97;;;19.24;33.81
66486;BME280;53303;47.476;8.084;2023-03-16T10:00:33;95271.84;;;19.11;34.02
66486;BME280;53303;47.476;8.084;2023-03-16T10:05:45;95278.88;;;19.12;34.08
66486;BME280;53303;47.476;8.084;2023-03-16T10:08:19;95295.97;;;19.27;33.85
66486;BME280;53303;47.476;8.084;2023-03-16T10:13:29;95269.59;;;19.15;33.69
66486;BME280;53303;47.476;8.084;2023-03-16T10:16:04;95265.03;;;19.17;33.78
66486;BME280;53303;47.476;8.084;2023-03-16T10:18:39;95247.22;;;19.13;33.90
66486;BME280;53303;47.476;8.084;2023-03-16T10:21:13;95263.53;;;19.28;33.78
66486;BME280;53303;47.476;8.084;2023-03-16T10:23:46;95261.25;;;19.26;33.73
66486;BME280;53303;47.476;8.084;2023-03-16T10:26:23;95253.72;;;19.21;33.85
66486;BME280;53303;47.476;8.084;2023-03-16T10:28:50;95268.81;;;19.26;33.75
66486;BME280;53303;47.476;8.084;2023-03-16T10:31:21;95262.00;;;19.27;33.75
66486;BME280;53303;47.476;8.084;2023-03-16T10:33:50;95254.50;;;19.21;33.92
66486;BME280;53303;47.476;8.084;2023-03-16T10:36:26;95268.78;;;19.31;33.72
66486;BME280;53303;47.476;8.084;2023-03-16T10:38:58;95260.25;;;19.29;33.89
66486;BME280;53303;47.476;8.084;2023-03-16T10:41:34;95253.97;;;19.23;33.78
66486;BME280;53303;47.476;8.084;2023-03-16T10:44:12;95283.38;;;19.32;33.91
66486;BME280;53303;47.476;8.084;2023-03-16T10:46:44;95275.84;;;19.32;34.02
66486;BME280;53303;47.476;8.084;2023-03-16T10:51:56;95265.78;;;19.29;33.79
66486;BME280;53303;47.476;8.084;2023-03-16T10:56:59;95252.75;;;19.18;33.91
66486;BME280;53303;47.476;8.084;2023-03-16T10:59:26;95272.06;;;19.35;33.97
66486;BME280;53303;47.476;8.084;2023-03-16T11:01:52;95274.31;;;19.37;33.98
66486;BME280;53303;47.476;8.084;2023-03-16T11:04:21;95262.75;;;19.38;34.00
66486;BME280;53303;47.476;8.084;2023-03-16T11:06:55;95266.75;;;19.37;33.92
66486;BME280;53303;47.476;8.084;2023-03-16T11:09:34;95264.00;;;19.37;34.06
66486;BME280;53303;47.476;8.084;2023-03-16T11:14:41;95254.25;;;19.25;34.12
66486;BME280;53303;47.476;8.084;2023-03-16T11:17:18;95237.13;;;19.21;33.92
66486;BME280;53303;47.476;8.084;2023-03-16T11:19:52;95255.44;;;19.35;33.96
66486;BME280;53303;47.476;8.084;2023-03-16T11:22:23;95257.72;;;19.37;33.99
66486;BME280;53303;47.476;8.084;2023-03-16T11:25:13;95240.13;;;19.23;34.19
66486;BME280;53303;47.476;8.084;2023-03-16T11:28:05;95253.19;;;19.34;34.04
66486;BME280;53303;47.476;8.084;2023-03-16T11:30:43;95242.63;;;19.38;34.07
66486;BME280;53303;47.476;8.084;2023-03-16T11:33:12;95225.56;;;19.23;34.06
66486;BME280;53303;47.476;8.084;2023-03-16T11:36:05;95238.59;;;19.39;34.12
66486;BME280;53303;47.476;8.084;2023-03-16T11:38:40;95224.03;;;19.33;34.23
66486;BME280;53303;47.476;8.084;2023-03-16T11:41:40;95235.31;;;19.40;34.04
66486;BME280;53303;47.476;8.084;2023-03-16T11:44:31;95209.22;;;19.25;34.06
66486;BME280;53303;47.476;8.084;2023-03-16T11:52:38;95227.53;;;19.39;34.24
66486;BME280;53303;47.476;8.084;2023-03-16T12:11:59;95220.47;;;19.44;34.08
66486;BME280;53303;47.476;8.084;2023-03-16T12:14:40;95211.16;;;19.47;34.07
66486;BME280;53303;47.476;8.084;2023-03-16T12:17:24;95190.31;;;19.34;34.08
66486;BME280;53303;47.476;8.084;2023-03-16T12:20:15;95191.56;;;19.33;34.25
66486;BME280;53303;47.476;8.084;2023-03-16T12:25:42;95203.59;;;19.53;34.01
66486;BME280;53303;47.476;8.084;2023-03-16T12:28:17;95198.28;;;19.55;34.00
66486;BME280;53303;47.476;8.084;2023-03-16T12:31:11;95198.78;;;19.53;34.01
66486;BME280;53303;47.476;8.084;2023-03-16T12:38:55;95191.97;;;19.60;33.85
66486;BME280;53303;47.476;8.084;2023-03-16T12:49:18;95171.38;;;19.55;33.83
66486;BME280;53303;47.476;8.084;2023-03-16T12:51:58;95166.34;;;19.54;33.78
66486;BME280;53303;47.476;8.084;2023-03-16T12:54:28;95166.09;;;19.57;33.93
66486;BME280;53303;47.476;8.084;2023-03-16T12:57:02;95176.59;;;19.70;33.76
66486;BME280;53303;47.476;8.084;2023-03-16T12:59:45;95167.81;;;19.66;33.81
66486;BME280;53303;47.476;8.084;2023-03-16T13:02:25;95176.81;;;19.78;33.84
66486;BME280;53303;47.476;8.084;2023-03-16T13:05:13;95163.78;;;19.67;33.74
66486;BME280;53303;47.476;8.084;2023-03-16T13:07:51;95169.53;;;19.81;33.80
66486;BME280;53303;47.476;8.084;2023-03-16T13:10:29;95131.59;;;19.58;33.73
66486;BME280;53303;47.476;8.084;2023-03-16T13:13:06;95148.16;;;19.75;33.79
66486;BME280;53303;47.476;8.084;2023-03-16T13:15:34;95136.84;;;19.73;33.87
66486;BME280;53303;47.476;8.084;2023-03-16T13:21:12;95133.81;;;19.66;33.67
66486;BME280;53303;47.476;8.084;2023-03-16T13:23:57;95162.94;;;19.84;33.94
66486;BME280;53303;47.476;8.084;2023-03-16T13:26:40;95155.09;;;19.93;33.77
66486;BME280;53303;47.476;8.084;2023-03-16T13:29:26;95147.06;;;19.90;33.80
66486;BME280;53303;47.476;8.084;2023-03-16T13:31:59;95154.56;;;20.01;33.61
66486;BME280;53303;47.476;8.084;2023-03-16T13:34:34;95148.53;;;19.96;33.67
66486;BME280;53303;47.476;8.084;2023-03-16T13:37:12;95138.47;;;19.93;33.63
66486;BME280;53303;47.476;8.084;2023-03-16T13:39:41;95133.00;;;19.88;33.80
66486;BME280;53303;47.476;8.084;2023-03-16T13:42:19;95159.78;;;20.10;33.57
66486;BME280;53303;47.476;8.084;2023-03-16T13:44:51;95164.06;;;20.11;33.62
66486;BME280;53303;47.476;8.084;2023-03-16T13:47:20;95155.97;;;20.13;33.74
66486;BME280;53303;47.476;8.084;2023-03-16T13:49:49;95116.34;;;19.93;33.64
66486;BME280;53303;47.476;8.084;2023-03-16T13:52:28;95150.41;;;20.19;33.61
66486;BME280;53303;47.476;8.084;2023-03-16T13:54:58;95145.38;;;20.17;33.56
66486;BME280;53303;47.476;8.084;2023-03-16T13:57:26;95157.69;;;20.22;33.51
66486;BME280;53303;47.476;8.084;2023-03-16T14:00:22;95114.50;;;20.02;33.61
66486;BME280;53303;47.476;8.084;2023-03-16T14:02:52;95136.03;;;20.20;33.55
66486;BME280;53303;47.476;8.084;2023-03-16T14:05:21;95139.78;;;20.23;33.60
66486;BME280;53303;47.476;8.084;2023-03-16T14:07:49;95120.66;;;20.19;33.80
66486;BME280;53303;47.476;8.084;2023-03-16T14:10:19;95135.25;;;20.25;33.59
66486;BME280;53303;47.476;8.084;2023-03-16T14:12:56;95132.94;;;20.29;33.54
66486;BME280;53303;47.476;8.084;2023-03-16T14:15:26;95129.88;;;20.33;33.61
66486;BME280;53303;47.476;8.084;2023-03-16T14:17:52;95115.34;;;20.21;33.58
66486;BME280;53303;47.476;8.084;2023-03-16T14:20:22;95133.34;;;20.39;33.48
66486;BME280;53303;47.476;8.084;2023-03-16T14:22:53;95108.78;;;20.24;33.44
66486;BME280;53303;47.476;8.084;2023-03-16T14:25:24;95140.88;;;20.44;33.38
66486;BME280;53303;47.476;8.084;2023-03-16T14:28:00;95124.28;;;20.39;33.20
66486;BME280;53303;47.476;8.084;2023-03-16T14:30:29;95123.31;;;20.36;33.19
66486;BME280;53303;47.476;8.084;2023-03-16T14:33:04;95136.31;;;20.47;33.50